ZWWW/URC METAR and TAF weather

Enter ICAO airport designator
Station Type Date Time Source
ZWWW METAR 2022/09/26 08:30 UTC NOAA

ZWWW 260830Z 31003MPS 260V340 CAVOK 31/03 Q1013 NOSIG


Station Type Date Time Source
ZWWW Decoded METAR 2022/09/26 08:30 UTC NOAA

Urum-Qi / Diwopu, China (ZWWW) 43-54N 087-28E
Sep 26, 2022 - 04:30 AM EDT / 2022.09.26 0830 UTC
Wind: from the NW (310 degrees) at 7 MPH (6 KT) (direction variable):0
Visibility: greater than 7 mile(s):0
Temperature: 87 F (31 C)
Dew Point: 37 F (3 C)
Relative Humidity: 16%
Pressure (altimeter): 29.91 in. Hg (1013 hPa)
ob: ZWWW 260830Z 31003MPS 260V340 CAVOK 31/03 Q1013 NOSIG
cycle: 8

Station Type Date Time Source
ZWWW TAF 2022/09/26 06:03 UTC NOAA

TAF ZWWW 260302Z 2606/2706 34004MPS CAVOK TX30/2609Z TN18/2623Z
BECMG 2613/2614 18004MPS
BECMG 2702/2703 34004MPS

Example: see airport list